Time;durP1;ratioP1;P1;durP2;ratioP2;P2;SDS_P1;SDS_P2;PMS_P1;PMS_P2;Temp;Humidity;BMP_temperature;BMP_pressure;BME280_temperature;BME280_humidity;BME280_pressure;Samples;Min_cycle;Max_cycle;Signal;HPM_P1;HPM_P2
2023/09/24 00:00:43;;;;;;;1.88;1.35;;;;;;;15.93;73.19;101074.25;2089378;28;20068;-65
2023/09/24 00:01:44;;;;;;;4.13;1.45;;;;;;;15.92;73.24;101075.34;2104706;28;20046;-65
2023/09/24 00:02:46;;;;;;;2.10;1.38;;;;;;;15.93;73.24;101076.97;2105895;28;20978;-64
2023/09/24 00:03:50;;;;;;;2.05;1.35;;;;;;;15.93;73.42;101076.16;2106266;28;20883;-64
2023/09/24 00:04:56;;;;;;;2.45;1.45;;;;;;;15.93;73.21;101076.97;2097231;28;20044;-64
2023/09/24 00:06:08;;;;;;;2.42;1.55;;;;;;;15.94;73.13;101078.56;2089083;28;20072;-64
2023/09/24 00:07:16;;;;;;;3.70;1.73;;;;;;;15.95;73.35;101073.94;2084399;28;20033;-65
2023/09/24 00:08:18;;;;;;;4.53;1.67;;;;;;;15.94;73.63;101073.13;2081533;28;20168;-64
2023/09/24 00:09:28;;;;;;;2.08;1.60;;;;;;;15.96;73.32;101080.97;2092599;28;20207;-64
2023/09/24 00:10:33;;;;;;;2.92;1.55;;;;;;;15.96;73.56;101076.34;2089138;28;20049;-64
2023/09/24 00:11:37;;;;;;;2.92;1.45;;;;;;;15.97;73.59;101083.38;2090985;28;20034;-64
2023/09/24 00:12:39;;;;;;;5.38;1.40;;;;;;;15.97;73.43;101088.00;2097642;28;20107;-64
2023/09/24 00:13:41;;;;;;;2.05;1.35;;;;;;;15.99;73.39;101080.38;2097350;28;20036;-65
2023/09/24 00:14:46;;;;;;;4.53;1.50;;;;;;;15.99;73.63;101080.38;2105607;28;20064;-65
2023/09/24 00:15:52;;;;;;;3.85;1.55;;;;;;;15.99;73.43;101077.66;2106651;28;20760;-65
2023/09/24 00:16:58;;;;;;;3.88;1.65;;;;;;;16.01;73.35;101082.78;2094301;28;20760;-65
2023/09/24 00:18:03;;;;;;;3.47;1.58;;;;;;;15.99;73.66;101085.81;2083146;28;20085;-65
2023/09/24 00:19:07;;;;;;;3.05;1.90;;;;;;;15.98;73.35;101090.44;2104878;28;21158;-65
2023/09/24 00:20:16;;;;;;;3.45;1.60;;;;;;;15.95;73.54;101090.19;2106328;28;20037;-65
2023/09/24 00:21:26;;;;;;;3.08;1.60;;;;;;;15.99;73.79;101097.44;2104880;28;20708;-65
2023/09/24 00:22:29;;;;;;;1.95;1.38;;;;;;;16.01;73.52;101096.34;2105402;28;20085;-65
2023/09/24 00:23:31;;;;;;;2.47;1.20;;;;;;;16.02;73.75;101095.25;2097271;28;20039;-65
2023/09/24 00:24:36;;;;;;;1.73;1.40;;;;;;;16.03;73.44;101096.84;2096800;28;20033;-64
2023/09/24 00:25:40;;;;;;;1.75;1.33;;;;;;;16.04;73.32;101098.44;2112752;28;21274;-65
2023/09/24 00:26:49;;;;;;;1.67;1.38;;;;;;;16.03;73.70;101097.66;2088553;28;20022;-65
2023/09/24 00:27:54;;;;;;;2.45;1.50;;;;;;;16.03;73.24;101096.84;2083012;28;20094;-65
2023/09/24 00:28:56;;;;;;;4.05;1.30;;;;;;;16.05;73.60;101105.50;2073218;28;20941;-65
2023/09/24 00:30:00;;;;;;;2.55;1.50;;;;;;;16.06;73.28;101104.38;2065038;28;20047;-65
2023/09/24 00:31:08;;;;;;;2.42;1.30;;;;;;;16.06;73.20;101109.81;2082474;28;20874;-65
2023/09/24 00:32:10;;;;;;;2.60;1.45;;;;;;;16.06;73.60;101107.09;2089826;28;20108;-65
2023/09/24 00:33:15;;;;;;;2.95;1.30;;;;;;;16.07;73.49;101108.69;2097539;28;20113;-65
2023/09/24 00:34:21;;;;;;;2.75;1.38;;;;;;;16.06;73.40;101112.53;2083193;28;20176;-65
2023/09/24 00:35:25;;;;;;;2.83;1.70;;;;;;;16.07;73.38;101114.13;2083395;28;20108;-65
2023/09/24 00:36:27;;;;;;;3.75;1.70;;;;;;;16.07;73.34;101112.19;2105744;28;20143;-65
2023/09/24 00:37:29;;;;;;;2.42;1.52;;;;;;;16.08;73.27;101118.44;2106745;28;20044;-65
2023/09/24 00:38:33;;;;;;;1.88;1.42;;;;;;;16.10;73.64;101113.50;2090653;28;20041;-65
2023/09/24 00:39:37;;;;;;;3.65;1.60;;;;;;;16.11;73.60;101120.53;2089327;28;20040;-65
2023/09/24 00:40:43;;;;;;;2.33;1.48;;;;;;;16.13;73.54;101118.34;2090931;28;20032;-65
2023/09/24 00:41:52;;;;;;;2.83;1.50;;;;;;;16.13;73.48;101123.75;2092626;28;20037;-65
2023/09/24 00:42:57;;;;;;;4.85;1.33;;;;;;;16.13;73.23;101124.56;2100301;28;20017;-65
2023/09/24 00:44:00;;;;;;;2.17;1.33;;;;;;;16.13;73.42;101123.75;2089724;28;20184;-65
2023/09/24 00:45:08;;;;;;;2.10;1.30;;;;;;;16.14;73.27;101122.66;2083450;28;20144;-65
2023/09/24 00:46:13;;;;;;;2.30;1.35;;;;;;;16.14;73.04;101115.34;2091908;28;20041;-65
2023/09/24 00:47:16;;;;;;;2.58;1.38;;;;;;;16.14;73.24;101115.34;2098890;28;20826;-65
2023/09/24 00:48:33;;;;;;;2.40;1.50;;;;;;;16.16;73.07;101117.72;2095065;28;20794;-65
2023/09/24 00:49:37;;;;;;;2.13;1.50;;;;;;;16.16;73.08;101120.44;2094831;28;20775;-65
2023/09/24 00:50:41;;;;;;;4.78;1.80;;;;;;;16.17;72.97;101122.03;2090520;28;20025;-65
2023/09/24 00:51:49;;;;;;;3.55;1.40;;;;;;;16.17;72.87;101119.31;2081461;28;20857;-65
2023/09/24 00:52:53;;;;;;;3.65;1.50;;;;;;;16.17;72.79;101120.16;2091890;28;20037;-65
2023/09/24 00:53:56;;;;;;;2.35;1.60;;;;;;;16.18;73.13;101123.66;2091035;28;20049;-65
2023/09/24 00:55:06;;;;;;;2.40;1.27;;;;;;;16.18;72.75;101127.19;2092786;28;20860;-65
2023/09/24 00:56:12;;;;;;;3.08;1.45;;;;;;;16.18;72.69;101124.47;2091078;28;20033;-65
2023/09/24 00:57:23;;;;;;;2.55;1.40;;;;;;;16.19;72.93;101136.91;2083762;28;20040;-65
2023/09/24 00:58:34;;;;;;;4.60;1.55;;;;;;;16.20;72.97;101140.44;2101113;28;20068;-65
2023/09/24 00:59:39;;;;;;;2.05;1.60;;;;;;;16.19;72.42;101138.84;2089689;28;20084;-65
2023/09/24 01:00:41;;;;;;;3.22;1.70;;;;;;;16.19;72.70;101138.84;2082936;28;20212;-65
2023/09/24 01:01:45;;;;;;;4.03;1.40;;;;;;;16.17;72.81;101139.16;2099114;28;20860;-65
2023/09/24 01:02:47;;;;;;;2.72;1.40;;;;;;;16.16;72.80;101140.22;2090386;28;20045;-65
2023/09/24 01:03:53;;;;;;;3.95;1.50;;;;;;;16.17;72.55;101141.88;2090788;28;20035;-65
2023/09/24 01:05:01;;;;;;;2.75;1.70;;;;;;;16.16;72.63;101142.94;2091211;28;20148;-64
2023/09/24 01:06:06;;;;;;;2.53;1.60;;;;;;;16.16;72.71;101140.22;2092421;28;20038;-65
2023/09/24 01:07:07;;;;;;;2.38;1.42;;;;;;;16.18;72.71;101153.50;2090271;28;20088;-65
2023/09/24 01:08:12;;;;;;;2.63;1.27;;;;;;;16.17;72.46;101138.31;2097913;28;20899;-65
2023/09/24 01:09:21;;;;;;;2.67;1.45;;;;;;;16.16;72.75;101148.38;2083182;28;20021;-65
2023/09/24 01:10:26;;;;;;;2.10;1.50;;;;;;;16.15;72.52;101145.97;2090376;28;20171;-65
2023/09/24 01:11:33;;;;;;;3.53;1.75;;;;;;;16.15;72.77;101143.25;2083058;28;20073;-65
2023/09/24 01:12:39;;;;;;;2.60;1.50;;;;;;;16.14;72.51;101144.34;2091561;28;20044;-65
2023/09/24 01:13:43;;;;;;;2.38;1.45;;;;;;;16.14;72.50;101144.34;2099019;28;20040;-65
2023/09/24 01:14:49;;;;;;;2.45;1.40;;;;;;;16.12;72.64;101147.38;2099246;28;20036;-65
2023/09/24 01:15:52;;;;;;;2.17;1.30;;;;;;;16.11;72.72;101150.38;2098651;28;20025;-66
2023/09/24 01:16:56;;;;;;;2.80;1.45;;;;;;;16.10;72.91;101151.50;2106315;28;20067;-65
2023/09/24 01:18:00;;;;;;;3.60;1.30;;;;;;;16.10;72.86;101148.78;2099221;28;20036;-65
2023/09/24 01:19:07;;;;;;;2.00;1.40;;;;;;;16.09;72.68;101153.41;2106783;28;20111;-65
2023/09/24 01:20:13;;;;;;;3.20;1.45;;;;;;;16.09;72.49;101155.31;2099396;28;20891;-65
2023/09/24 01:21:19;;;;;;;2.97;1.40;;;;;;;16.08;72.96;101149.09;2090869;28;20124;-65
2023/09/24 01:22:28;;;;;;;2.17;1.30;;;;;;;16.07;72.80;101158.31;2083601;28;20946;-65
2023/09/24 01:23:37;;;;;;;3.70;1.50;;;;;;;16.07;72.95;101150.19;2091522;28;20079;-65
2023/09/24 01:24:40;;;;;;;1.63;1.23;;;;;;;16.05;72.73;101149.69;2098595;28;20040;-65
2023/09/24 01:25:48;;;;;;;2.70;1.40;;;;;;;16.05;73.00;101148.91;2098547;28;20793;-65
2023/09/24 01:26:51;;;;;;;2.47;1.40;;;;;;;16.05;72.79;101159.75;2097103;28;20041;-65
2023/09/24 01:27:57;;;;;;;2.50;1.60;;;;;;;16.06;72.74;101153.19;2098239;28;20788;-65
2023/09/24 01:29:06;;;;;;;6.20;1.55;;;;;;;16.03;73.07;101159.22;2099657;28;20150;-65
2023/09/24 01:30:15;;;;;;;2.55;1.42;;;;;;;16.04;73.04;101158.13;2098042;28;20036;-65
2023/09/24 01:31:38;;;;;;;3.35;1.63;;;;;;;16.03;73.01;101157.31;2091409;28;20049;-65
2023/09/24 01:32:50;;;;;;;1.95;1.40;;;;;;;16.01;72.80;101159.50;2100794;28;20118;-65
2023/09/24 01:33:52;;;;;;;1.50;1.20;;;;;;;16.00;73.20;101157.91;2099503;28;20107;-65
2023/09/24 01:34:54;;;;;;;1.67;1.33;;;;;;;15.98;72.97;101166.38;2106614;28;20139;-66
2023/09/24 01:36:01;;;;;;;2.92;1.58;;;;;;;15.95;73.00;101160.72;2106564;28;20802;-65
2023/09/24 01:37:08;;;;;;;8.13;1.70;;;;;;;15.94;72.98;101159.91;2098509;28;20139;-65
2023/09/24 01:38:13;;;;;;;2.65;1.45;;;;;;;15.93;73.33;101160.22;2091572;28;20068;-64
2023/09/24 01:39:17;;;;;;;3.10;1.50;;;;;;;15.92;72.97;101164.84;2098796;28;21226;-65
2023/09/24 01:40:23;;;;;;;2.25;1.60;;;;;;;15.89;73.11;101168.16;2105188;28;21214;-64
2023/09/24 01:41:30;;;;;;;2.25;1.50;;;;;;;15.89;73.10;101164.63;2107354;28;20135;-65
2023/09/24 01:42:34;;;;;;;2.90;1.58;;;;;;;15.89;73.29;101165.44;2105322;28;20155;-65
2023/09/24 01:43:43;;;;;;;2.60;1.70;;;;;;;15.89;73.31;101164.63;2082332;28;20034;-65
2023/09/24 01:44:47;;;;;;;2.97;1.90;;;;;;;15.88;73.34;101163.81;2082137;28;20142;-65
2023/09/24 01:45:52;;;;;;;2.95;2.00;;;;;;;15.86;73.20;101171.47;2083551;28;20875;-65
2023/09/24 01:46:58;;;;;;;3.90;2.22;;;;;;;15.86;73.29;101173.38;2098831;28;20083;-65
2023/09/24 01:48:05;;;;;;;5.90;2.10;;;;;;;15.84;73.55;101170.94;2091592;28;20042;-65
2023/09/24 01:49:10;;;;;;;3.60;1.80;;;;;;;15.84;73.43;101170.16;2090500;28;20045;-65
2023/09/24 01:50:19;;;;;;;2.50;2.00;;;;;;;15.82;73.80;101173.16;2091850;28;20071;-64
2023/09/24 01:51:31;;;;;;;3.90;2.10;;;;;;;15.82;73.63;101173.16;2107007;28;20978;-66
2023/09/24 01:52:38;;;;;;;2.83;2.10;;;;;;;15.81;73.81;101174.25;2097804;28;20027;-65
2023/09/24 01:53:45;;;;;;;4.95;1.90;;;;;;;15.80;73.54;101169.94;2099439;28;20139;-65
2023/09/24 01:54:49;;;;;;;2.83;2.00;;;;;;;15.79;73.55;101176.44;2098978;28;20866;-65
2023/09/24 01:55:53;;;;;;;3.85;2.00;;;;;;;15.78;73.66;101172.16;2098341;28;20032;-65
2023/09/24 01:56:54;;;;;;;2.33;1.50;;;;;;;15.79;73.60;101170.22;2098174;28;20032;-65
2023/09/24 01:58:00;;;;;;;3.78;1.63;;;;;;;15.78;73.75;101171.34;2099035;28;20997;-65
2023/09/24 01:59:05;;;;;;;2.85;1.90;;;;;;;15.77;73.69;101175.97;2098727;28;20037;-65
2023/09/24 02:00:18;;;;;;;4.20;1.80;;;;;;;15.76;73.93;101174.34;2090337;28;20041;-65
2023/09/24 02:01:24;;;;;;;2.72;1.48;;;;;;;15.75;73.63;101180.88;2101546;28;20763;-65
2023/09/24 02:02:26;;;;;;;2.50;1.73;;;;;;;15.75;73.86;101178.16;2106235;28;20752;-65
2023/09/24 02:03:28;;;;;;;2.55;1.38;;;;;;;15.73;73.84;101177.66;2089867;28;20029;-65
2023/09/24 02:04:32;;;;;;;3.97;1.77;;;;;;;15.72;73.86;101176.03;2098807;28;20806;-65
2023/09/24 02:05:42;;;;;;;3.90;1.65;;;;;;;15.70;74.06;101175.56;2098780;28;20152;-65
2023/09/24 02:06:47;;;;;;;2.53;1.55;;;;;;;15.68;73.90;101175.03;2101272;28;20147;-65
2023/09/24 02:07:55;;;;;;;2.50;1.40;;;;;;;15.68;73.99;101177.75;2106140;28;20036;-64
2023/09/24 02:08:58;;;;;;;5.07;1.60;;;;;;;15.66;74.02;101179.91;2083808;28;20036;-64
2023/09/24 02:10:05;;;;;;;3.78;1.60;;;;;;;15.64;74.26;101177.50;2089688;28;20028;-65
2023/09/24 02:11:06;;;;;;;2.08;1.50;;;;;;;15.65;74.12;101183.72;2106145;28;20044;-65
2023/09/24 02:12:11;;;;;;;2.22;1.52;;;;;;;15.65;74.51;101178.31;2098041;28;20049;-65
2023/09/24 02:13:13;;;;;;;1.73;1.23;;;;;;;15.64;74.13;101179.44;2089814;28;20053;-64
2023/09/24 02:14:17;;;;;;;2.17;1.33;;;;;;;15.63;74.25;101177.78;2089465;28;20029;-64
2023/09/24 02:15:23;;;;;;;3.05;1.67;;;;;;;15.62;74.57;101174.28;2081974;28;20046;-64
2023/09/24 02:16:27;;;;;;;3.47;1.60;;;;;;;15.61;74.30;101180.03;2090868;28;20038;-65
2023/09/24 02:17:31;;;;;;;3.40;1.63;;;;;;;15.58;74.45;101184.13;2098504;28;20048;-67
2023/09/24 02:18:33;;;;;;;3.15;1.95;;;;;;;15.57;74.45;101177.06;2095153;28;20028;-65
2023/09/24 02:19:35;;;;;;;2.90;1.63;;;;;;;15.57;74.83;101184.41;2106363;28;20040;-65
2023/09/24 02:20:36;;;;;;;2.10;1.50;;;;;;;15.56;74.77;101180.09;2097605;28;20855;-65
2023/09/24 02:21:41;;;;;;;2.78;1.40;;;;;;;15.56;74.57;101191.72;2089703;28;20053;-65
2023/09/24 02:22:42;;;;;;;2.10;1.40;;;;;;;15.55;74.53;101189.34;2089973;28;20105;-65
2023/09/24 02:23:47;;;;;;;4.88;1.40;;;;;;;15.54;74.54;101180.38;2098654;28;20952;-64
2023/09/24 02:24:56;;;;;;;1.80;1.45;;;;;;;15.53;74.83;101181.47;2105449;28;20033;-65
2023/09/24 02:26:00;;;;;;;4.55;1.40;;;;;;;15.52;74.53;101185.31;2098174;28;20029;-65
2023/09/24 02:27:04;;;;;;;3.20;1.40;;;;;;;15.53;74.59;101192.31;2097558;28;20037;-65
2023/09/24 02:28:06;;;;;;;3.58;1.40;;;;;;;15.52;74.92;101186.09;2089668;28;20139;-65
2023/09/24 02:29:16;;;;;;;2.97;1.40;;;;;;;15.52;75.04;101185.31;2082451;28;20073;-65
2023/09/24 02:30:26;;;;;;;2.90;1.50;;;;;;;15.53;74.60;101192.31;2099232;28;20021;-65
2023/09/24 02:31:30;;;;;;;2.83;1.42;;;;;;;15.53;75.06;101186.91;2105658;28;20033;-65
2023/09/24 02:32:35;;;;;;;1.50;1.40;;;;;;;15.51;74.65;101184.50;2097553;28;20058;-65
2023/09/24 02:33:37;;;;;;;2.08;1.48;;;;;;;15.50;74.68;101188.28;2089542;28;20041;-64
2023/09/24 02:34:40;;;;;;;1.80;1.40;;;;;;;15.48;75.08;101185.09;2090127;28;20017;-65
2023/09/24 02:35:44;;;;;;;4.10;1.50;;;;;;;15.50;74.89;101198.34;2088902;28;20049;-65
2023/09/24 02:36:46;;;;;;;2.08;1.50;;;;;;;15.49;74.88;101188.59;2074469;28;20141;-65
2023/09/24 02:37:55;;;;;;;3.78;1.60;;;;;;;15.49;74.98;101188.59;2081463;28;20132;-65
2023/09/24 02:39:05;;;;;;;2.63;1.40;;;;;;;15.47;75.06;101191.59;2092607;28;20061;-65
2023/09/24 02:40:21;;;;;;;2.10;1.50;;;;;;;15.48;75.17;101195.94;2105367;28;20053;-65
2023/09/24 02:41:33;;;;;;;3.25;1.50;;;;;;;15.47;75.50;101194.31;2098080;28;20087;-65
2023/09/24 02:42:37;;;;;;;3.45;1.42;;;;;;;15.48;75.15;101195.94;2092245;28;20180;-64
2023/09/24 02:43:38;;;;;;;4.45;1.63;;;;;;;15.46;75.09;101195.41;2087791;28;20029;-65
2023/09/24 02:44:40;;;;;;;2.90;1.50;;;;;;;15.47;75.27;101199.72;2073880;28;20035;-65
2023/09/24 02:45:44;;;;;;;2.65;1.70;;;;;;;15.46;75.21;101203.53;2082548;28;20022;-65
2023/09/24 02:46:52;;;;;;;2.40;1.58;;;;;;;15.46;75.34;101202.75;2100692;28;20020;-65
2023/09/24 02:47:56;;;;;;;2.15;1.38;;;;;;;15.46;75.22;101198.13;2106280;28;20063;-65
2023/09/24 02:48:58;;;;;;;1.88;1.40;;;;;;;15.44;75.30;101200.31;2081990;28;20165;-65
2023/09/24 02:50:00;;;;;;;5.13;1.70;;;;;;;15.45;75.37;101201.16;2090238;28;20133;-65
2023/09/24 02:51:12;;;;;;;2.92;1.60;;;;;;;15.45;75.75;101207.38;2098738;28;20024;-65
2023/09/24 02:52:17;;;;;;;3.38;1.67;;;;;;;15.44;75.63;101200.31;2099525;28;20060;-65
2023/09/24 02:53:20;;;;;;;2.25;1.50;;;;;;;15.43;75.54;101197.91;2097830;28;20052;-65
2023/09/24 02:54:24;;;;;;;2.03;1.35;;;;;;;15.44;75.49;101204.94;2082604;28;20032;-64
2023/09/24 02:55:35;;;;;;;3.20;1.40;;;;;;;15.43;75.63;101212.25;2098875;27;20045;-64
2023/09/24 02:56:42;;;;;;;2.45;1.70;;;;;;;15.43;75.45;101212.25;2106007;28;20025;-65
2023/09/24 02:57:49;;;;;;;1.85;1.35;;;;;;;15.43;75.54;101211.47;2090355;28;20055;-65
2023/09/24 02:58:54;;;;;;;2.13;1.40;;;;;;;15.43;75.65;101203.34;2091745;28;20085;-64
2023/09/24 03:01:46;;;;;;;2.85;1.23;;;;;;;15.43;75.46;101209.56;2095367;28;20049;-64
2023/09/24 03:02:50;;;;;;;2.97;1.63;;;;;;;15.42;75.57;101210.66;2084343;28;20132;-64
2023/09/24 03:03:59;;;;;;;1.70;1.30;;;;;;;15.43;75.63;101217.69;2082684;28;20081;-64
2023/09/24 03:05:08;;;;;;;3.53;1.60;;;;;;;15.43;75.69;101214.97;2093016;28;20033;-64
2023/09/24 03:06:23;;;;;;;3.28;1.50;;;;;;;15.43;75.44;101214.97;2092037;28;20800;-64
2023/09/24 03:07:28;;;;;;;3.05;1.48;;;;;;;15.43;75.85;101214.97;2076432;28;20030;-64
2023/09/24 03:08:32;;;;;;;2.65;1.42;;;;;;;15.43;75.90;101225.81;2074674;28;20536;-64
2023/09/24 03:09:34;;;;;;;3.92;1.60;;;;;;;15.42;75.85;101224.22;2090204;28;20081;-64
2023/09/24 03:10:37;;;;;;;2.72;1.40;;;;;;;15.39;75.77;101211.25;2088822;28;20029;-64
2023/09/24 03:11:44;;;;;;;2.97;1.50;;;;;;;15.41;75.83;101219.06;2083402;28;20042;-65
2023/09/24 03:12:52;;;;;;;4.95;1.55;;;;;;;15.40;75.85;101222.91;2075096;28;20035;-65
2023/09/24 03:13:56;;;;;;;5.32;1.95;;;;;;;15.39;75.73;101226.72;2084762;28;20741;-65
2023/09/24 03:15:01;;;;;;;2.90;1.50;;;;;;;15.38;76.13;101228.59;2090077;28;20041;-65
2023/09/24 03:16:05;;;;;;;2.47;1.50;;;;;;;15.39;76.18;101229.41;2091244;28;20922;-64
2023/09/24 03:17:07;;;;;;;6.85;1.55;;;;;;;15.40;76.43;101231.81;2090415;28;20123;-65
2023/09/24 03:18:09;;;;;;;3.08;1.40;;;;;;;15.40;75.90;101231.81;2074746;28;20026;-65
2023/09/24 03:19:14;;;;;;;3.13;1.50;;;;;;;15.39;76.31;101235.63;2087157;28;20065;-65
2023/09/24 03:20:18;;;;;;;3.50;1.60;;;;;;;15.40;75.78;101239.16;2106324;28;20032;-65
2023/09/24 03:21:23;;;;;;;1.83;1.40;;;;;;;15.40;76.00;101242.66;2098088;28;20122;-65
2023/09/24 03:22:30;;;;;;;3.22;1.60;;;;;;;15.39;75.82;101246.47;2082466;28;20100;-65
2023/09/24 03:23:36;;;;;;;2.35;1.45;;;;;;;15.39;76.18;101241.06;2091439;28;20049;-65
2023/09/24 03:24:43;;;;;;;3.33;1.55;;;;;;;15.37;76.02;101248.66;2090198;28;20036;-65
2023/09/24 03:25:45;;;;;;;2.47;1.30;;;;;;;15.38;75.92;101250.25;2090595;28;20036;-65
2023/09/24 03:26:47;;;;;;;2.28;1.50;;;;;;;15.38;75.90;101252.97;2097325;28;20045;-64
2023/09/24 03:27:57;;;;;;;4.00;1.80;;;;;;;15.38;75.82;101252.19;2090307;28;20033;-65
2023/09/24 03:29:02;;;;;;;3.10;1.55;;;;;;;15.37;75.85;101248.66;2084886;28;20053;-65
2023/09/24 03:30:17;;;;;;;2.08;1.45;;;;;;;15.36;76.03;101257.91;2090937;28;20030;-64
2023/09/24 03:31:22;;;;;;;4.43;1.25;;;;;;;15.35;76.30;101250.84;2091811;28;20033;-65
2023/09/24 03:32:34;;;;;;;3.83;1.45;;;;;;;15.34;76.06;101259.28;2084396;28;20037;-65
2023/09/24 03:33:36;;;;;;;2.78;1.52;;;;;;;15.33;76.09;101261.19;2106632;28;20075;-65
2023/09/24 03:34:44;;;;;;;3.85;1.80;;;;;;;15.31;76.31;101260.69;2098143;28;20124;-65
2023/09/24 03:35:47;;;;;;;2.40;1.55;;;;;;;15.32;76.46;101269.59;2083470;28;20065;-65
2023/09/24 03:36:53;;;;;;;2.28;1.45;;;;;;;15.29;76.05;101262.91;2081587;28;20042;-65
2023/09/24 03:37:59;;;;;;;3.28;1.88;;;;;;;15.31;76.36;101271.50;2090903;28;20140;-65
2023/09/24 03:39:01;;;;;;;2.95;1.40;;;;;;;15.29;76.26;101276.44;2099526;28;20029;-65
2023/09/24 03:40:13;;;;;;;2.75;1.58;;;;;;;15.29;76.46;101284.56;2098604;28;20175;-65
2023/09/24 03:41:19;;;;;;;2.20;1.55;;;;;;;15.27;76.26;101279.44;2099946;28;20029;-65
2023/09/24 03:42:25;;;;;;;2.08;1.42;;;;;;;15.25;76.36;101272.69;2098074;28;20029;-65
2023/09/24 03:43:27;;;;;;;3.53;1.50;;;;;;;15.25;76.71;101278.91;2074424;28;20050;-65
2023/09/24 03:44:31;;;;;;;3.42;1.42;;;;;;;15.25;76.65;101284.31;2089378;28;21265;-65
2023/09/24 03:45:41;;;;;;;;;;;;;;;15.25;76.68;101286.22;2089842;28;20076;-65
2023/09/24 03:46:45;;;;;;;2.60;1.58;;;;;;;15.25;76.50;101283.53;2089049;28;20750;-64
2023/09/24 03:47:51;;;;;;;4.13;1.30;;;;;;;15.24;76.84;101293.56;2074079;28;20093;-65
2023/09/24 03:48:55;;;;;;;4.47;1.65;;;;;;;15.25;76.52;101288.94;2080189;28;20992;-64
2023/09/24 03:49:59;;;;;;;3.58;1.58;;;;;;;15.24;76.70;101295.47;2097782;28;20111;-65
2023/09/24 03:51:04;;;;;;;2.22;1.40;;;;;;;15.23;77.01;101302.78;2096011;28;20037;-64
2023/09/24 03:52:10;;;;;;;1.30;1.20;;;;;;;15.23;76.81;101296.56;2095504;28;20149;-64
2023/09/24 03:53:18;;;;;;;1.98;1.40;;;;;;;15.20;76.86;101297.94;2096993;28;21365;-64
2023/09/24 03:54:22;;;;;;;2.03;1.50;;;;;;;15.20;76.59;101297.16;2097687;28;20850;-64
2023/09/24 03:55:27;;;;;;;3.05;1.40;;;;;;;15.19;76.98;101298.22;2088985;28;20041;-64
2023/09/24 03:56:32;;;;;;;2.08;1.30;;;;;;;15.19;77.02;101300.94;2071803;28;20223;-65
2023/09/24 03:57:37;;;;;;;2.90;1.73;;;;;;;15.17;76.85;101303.16;2080164;28;20128;-64
2023/09/24 03:58:39;;;;;;;4.28;1.60;;;;;;;15.17;77.04;101297.72;2088794;28;20159;-64
2023/09/24 03:59:46;;;;;;;3.08;1.67;;;;;;;15.15;76.91;101305.34;2096266;28;20033;-65
2023/09/24 04:00:49;;;;;;;2.33;1.30;;;;;;;15.16;76.61;101306.94;2095673;28;20076;-64
2023/09/24 04:01:52;;;;;;;2.50;1.40;;;;;;;15.14;76.82;101296.41;2092275;28;20862;-64
2023/09/24 04:02:55;;;;;;;2.85;1.30;;;;;;;15.15;77.10;101311.56;2103313;28;20151;-64
2023/09/24 04:04:02;;;;;;;3.63;1.55;;;;;;;15.15;76.92;101316.16;2096503;28;20092;-64
2023/09/24 04:05:09;;;;;;;2.30;1.20;;;;;;;15.13;77.14;101305.63;2096359;28;20017;-64
2023/09/24 04:06:13;;;;;;;1.73;1.43;;;;;;;15.13;77.29;101315.63;2102479;28;20852;-64
2023/09/24 04:07:17;;;;;;;5.85;1.30;;;;;;;15.13;77.21;101316.47;2095602;28;20217;-64
2023/09/24 04:08:21;;;;;;;2.35;1.58;;;;;;;15.13;77.07;101323.75;2090573;28;20163;-65
2023/09/24 04:09:23;;;;;;;3.05;1.55;;;;;;;15.13;77.14;101318.34;2089547;28;20026;-64
2023/09/24 04:10:30;;;;;;;3.03;1.55;;;;;;;15.11;77.08;101315.16;2098021;28;20235;-64
2023/09/24 04:11:32;;;;;;;4.70;1.60;;;;;;;15.11;76.99;101321.38;2101211;28;20041;-64
2023/09/24 04:12:37;;;;;;;1.85;1.48;;;;;;;15.11;77.18;101320.56;2097893;28;20113;-64
2023/09/24 04:13:40;;;;;;;3.88;1.63;;;;;;;15.09;76.98;101320.03;2098368;28;20033;-65
2023/09/24 04:14:44;;;;;;;2.08;1.65;;;;;;;15.07;77.04;101326.56;2106493;28;20024;-64
2023/09/24 04:15:45;;;;;;;2.33;1.50;;;;;;;15.07;76.96;101326.56;2097302;28;20045;-64
2023/09/24 04:16:50;;;;;;;3.55;1.50;;;;;;;15.08;77.24;101332.78;2089949;28;20142;-64
2023/09/24 04:17:57;;;;;;;2.65;1.50;;;;;;;15.06;77.19;101330.34;2082425;28;20768;-64
2023/09/24 04:19:02;;;;;;;3.63;1.40;;;;;;;15.06;77.37;101335.75;2091544;28;20045;-64
2023/09/24 04:20:08;;;;;;;6.40;1.50;;;;;;;15.04;76.95;101337.97;2096909;28;20071;-65
2023/09/24 04:21:21;;;;;;;6.32;1.50;;;;;;;15.02;77.16;101332.03;2106636;28;20956;-63
2023/09/24 04:22:34;;;;;;;2.30;1.23;;;;;;;15.04;77.29;101331.75;2114561;27;20045;-64
2023/09/24 04:23:36;;;;;;;3.70;1.65;;;;;;;15.04;77.24;101337.16;2105649;28;20032;-64
2023/09/24 04:24:37;;;;;;;3.40;1.77;;;;;;;15.04;77.19;101337.97;2097790;28;20140;-63
2023/09/24 04:25:42;;;;;;;4.32;1.33;;;;;;;15.04;77.18;101339.88;2097846;28;20075;-63
2023/09/24 04:26:45;;;;;;;3.15;1.55;;;;;;;15.04;77.03;101342.59;2099441;28;20076;-63
2023/09/24 04:27:50;;;;;;;4.63;1.48;;;;;;;15.03;77.17;101335.53;2098398;28;20029;-63
2023/09/24 04:28:54;;;;;;;2.90;1.58;;;;;;;15.00;77.34;101342.31;2098655;28;20049;-63
2023/09/24 04:29:56;;;;;;;2.60;1.45;;;;;;;14.99;76.99;101343.44;2098211;28;20025;-63
2023/09/24 04:31:00;;;;;;;3.65;1.45;;;;;;;14.97;77.24;101345.63;2098984;28;20053;-63
2023/09/24 04:32:02;;;;;;;3.35;1.60;;;;;;;14.95;77.12;101339.69;2106718;28;20786;-63
2023/09/24 04:33:09;;;;;;;2.30;1.50;;;;;;;14.95;77.53;101345.13;2107105;28;20134;-63
2023/09/24 04:34:14;;;;;;;2.50;1.40;;;;;;;14.95;77.48;101349.72;2106065;28;21191;-64
2023/09/24 04:35:29;;;;;;;2.33;1.33;;;;;;;14.93;77.18;101351.91;2098409;28;20041;-64
2023/09/24 04:36:31;;;;;;;3.03;1.65;;;;;;;14.91;77.35;101349.50;2101313;28;20041;-63
2023/09/24 04:37:33;;;;;;;2.50;1.70;;;;;;;14.91;77.78;101354.09;2106231;28;20037;-64
2023/09/24 04:38:41;;;;;;;3.13;1.63;;;;;;;14.89;77.73;101353.59;2098476;28;20187;-63
2023/09/24 04:39:45;;;;;;;3.75;1.60;;;;;;;14.88;77.47;101355.50;2096964;28;20160;-63
2023/09/24 04:40:52;;;;;;;3.53;1.63;;;;;;;14.87;77.49;101361.97;2098382;28;20246;-63
2023/09/24 04:41:54;;;;;;;3.67;1.65;;;;;;;14.86;77.67;101360.38;2105189;28;20764;-63
2023/09/24 04:42:56;;;;;;;2.78;1.70;;;;;;;14.86;77.46;101368.50;2105427;28;20040;-63
2023/09/24 04:44:00;;;;;;;2.38;1.75;;;;;;;14.86;77.67;101378.53;2096960;28;20772;-63
2023/09/24 04:45:03;;;;;;;2.35;1.60;;;;;;;14.84;77.54;101376.09;2098766;28;20792;-63
2023/09/24 04:46:13;;;;;;;2.83;1.40;;;;;;;14.83;77.63;101379.91;2106035;28;20029;-63
2023/09/24 04:47:14;;;;;;;3.17;2.00;;;;;;;14.82;77.97;101370.19;2106439;28;20136;-64
2023/09/24 04:48:16;;;;;;;3.00;1.80;;;;;;;14.81;77.93;101376.66;2090959;28;20026;-63
2023/09/24 04:49:25;;;;;;;2.67;1.60;;;;;;;14.80;78.09;101375.88;2090567;28;20145;-63
2023/09/24 04:50:27;;;;;;;6.40;1.60;;;;;;;14.81;77.93;101373.97;2098121;28;20040;-63
2023/09/24 04:51:34;;;;;;;5.00;1.90;;;;;;;14.82;78.00;101378.31;2089862;28;20029;-63
2023/09/24 04:52:37;;;;;;;6.07;1.98;;;;;;;14.81;77.97;101376.66;2090347;28;20807;-63
2023/09/24 04:53:40;;;;;;;6.65;1.50;;;;;;;14.83;78.30;101379.91;2106629;28;20909;-63
2023/09/24 04:54:44;;;;;;;2.78;1.60;;;;;;;14.82;78.42;101383.72;2098422;28;20148;-63
2023/09/24 04:55:48;;;;;;;2.92;1.75;;;;;;;14.80;78.32;101377.75;2091096;28;20033;-64
2023/09/24 04:56:52;;;;;;;3.72;1.70;;;;;;;14.83;77.99;101386.13;2086376;28;20044;-63
2023/09/24 04:57:54;;;;;;;3.10;1.73;;;;;;;14.83;78.27;101382.59;2098845;28;20861;-63
2023/09/24 04:59:04;;;;;;;1.90;1.38;;;;;;;14.82;78.24;101379.09;2099600;28;20136;-64
2023/09/24 05:00:07;;;;;;;2.17;1.35;;;;;;;14.83;78.46;101382.59;2089791;28;20049;-64
2023/09/24 05:01:11;;;;;;;4.57;1.70;;;;;;;14.84;78.01;101378.81;2083165;28;20149;-63
2023/09/24 05:02:20;;;;;;;4.38;1.80;;;;;;;14.86;78.27;101387.44;2091326;28;20203;-64
2023/09/24 05:03:24;;;;;;;4.43;2.25;;;;;;;14.84;78.23;101384.22;2090608;28;20032;-63
2023/09/24 05:04:28;;;;;;;7.13;1.88;;;;;;;14.86;78.33;101384.75;2090334;28;20869;-64
2023/09/24 05:05:36;;;;;;;5.10;1.80;;;;;;;14.85;78.51;101388.56;2083239;28;20053;-64